Time;durP1;ratioP1;P1;durP2;ratioP2;P2;SDS_P1;SDS_P2;PMS_P1;PMS_P2;Temp;Humidity;BMP_temperature;BMP_pressure;BME280_temperature;BME280_humidity;BME280_pressure;Samples;Min_cycle;Max_cycle;Signal;HPM_P1;HPM_P2
2023/07/17 00:00:24;;;;;;;19.30;17.10;;;28.20;75.40;;;;;;6151504;27;85445;-74
2023/07/17 00:03:24;;;;;;;17.10;14.85;;;28.20;75.10;;;;;;6155737;27;83865;-73
2023/07/17 00:06:25;;;;;;;16.95;15.25;;;28.20;75.20;;;;;;6153119;27;83369;-73
2023/07/17 00:09:25;;;;;;;15.68;14.07;;;28.10;75.30;;;;;;6163140;27;83797;-73
2023/07/17 00:12:26;;;;;;;17.42;15.57;;;28.20;75.10;;;;;;6161130;27;83936;-64
2023/07/17 00:15:27;;;;;;;16.20;14.43;;;28.20;75.20;;;;;;6162642;27;83427;-66
2023/07/17 00:18:30;;;;;;;16.75;14.98;;;28.20;75.10;;;;;;6154228;27;83291;-62
2023/07/17 00:21:31;;;;;;;18.70;14.85;;;28.20;75.30;;;;;;6154004;27;85891;-64
2023/07/17 00:24:31;;;;;;;15.82;14.18;;;28.20;75.40;;;;;;6153328;27;82866;-62
2023/07/17 00:27:34;;;;;;;18.33;14.75;;;28.10;75.50;;;;;;6164300;27;83455;-60
2023/07/17 00:30:34;;;;;;;16.10;14.45;;;28.10;75.40;;;;;;6162779;27;83973;-69
2023/07/17 00:33:35;;;;;;;16.20;14.13;;;28.10;75.40;;;;;;6165560;27;83128;-70
2023/07/17 00:36:35;;;;;;;16.25;14.63;;;28.10;75.40;;;;;;6164093;27;83491;-69
2023/07/17 00:39:36;;;;;;;19.23;14.77;;;28.10;75.30;;;;;;6167020;27;84088;-70
2023/07/17 00:42:36;;;;;;;17.48;15.32;;;28.10;75.40;;;;;;6174088;27;84672;-70
2023/07/17 00:45:37;;;;;;;16.35;14.68;;;28.10;75.30;;;;;;6170650;27;85960;-69
2023/07/17 00:48:37;;;;;;;15.20;13.70;;;28.00;75.50;;;;;;6172541;27;85870;-59
2023/07/17 00:51:38;;;;;;;15.95;13.75;;;28.00;75.40;;;;;;6165840;27;83020;-60
2023/07/17 00:54:39;;;;;;;16.90;15.10;;;28.00;75.40;;;;;;6157476;27;86412;-60
2023/07/17 00:57:39;;;;;;;16.48;14.75;;;28.00;75.40;;;;;;6149415;27;84683;-60
2023/07/17 01:00:40;;;;;;;15.52;13.32;;;27.90;75.30;;;;;;6171311;27;84674;-59
2023/07/17 01:03:41;;;;;;;15.30;13.70;;;27.90;75.60;;;;;;6168636;27;83532;-60
2023/07/17 01:06:41;;;;;;;17.35;14.30;;;27.90;75.70;;;;;;6167152;27;83961;-60
2023/07/17 01:09:42;;;;;;;18.80;14.55;;;27.90;75.70;;;;;;6164636;27;83329;-61
2023/07/17 01:12:42;;;;;;;16.40;14.50;;;27.90;75.60;;;;;;6168866;27;86190;-59
2023/07/17 01:15:43;;;;;;;15.90;13.52;;;27.80;75.40;;;;;;6156413;27;83468;-60
2023/07/17 01:18:43;;;;;;;17.17;13.90;;;27.80;75.50;;;;;;6147507;27;86271;-60
2023/07/17 01:21:44;;;;;;;26.58;14.45;;;27.80;75.50;;;;;;6172942;27;85860;-60
2023/07/17 01:24:45;;;;;;;14.77;12.98;;;27.80;75.80;;;;;;6151936;27;86012;-72
2023/07/17 01:27:45;;;;;;;15.70;13.85;;;27.70;75.80;;;;;;6154147;27;83623;-73
2023/07/17 01:30:46;;;;;;;16.70;14.10;;;27.70;75.70;;;;;;6180935;27;85650;-72
2023/07/17 01:33:46;;;;;;;16.23;13.60;;;27.80;76.00;;;;;;6172252;27;83449;-72
2023/07/17 01:36:47;;;;;;;16.08;14.25;;;27.80;75.90;;;;;;6168412;27;83654;-71
2023/07/17 01:39:47;;;;;;;16.30;13.77;;;27.70;75.90;;;;;;6168617;27;83698;-71
2023/07/17 01:42:48;;;;;;;19.20;14.95;;;27.80;76.00;;;;;;6151518;27;83643;-60
2023/07/17 01:45:49;;;;;;;15.85;14.20;;;27.80;76.10;;;;;;6158717;27;85836;-58
2023/07/17 01:48:49;;;;;;;16.17;13.85;;;27.70;76.10;;;;;;6147193;27;84237;-59
2023/07/17 01:51:50;;;;;;;17.17;14.20;;;27.70;76.20;;;;;;6162191;27;83553;-59
2023/07/17 01:54:50;;;;;;;15.38;13.80;;;27.70;76.30;;;;;;6159687;27;83546;-60
2023/07/17 01:57:51;;;;;;;15.10;13.38;;;27.70;76.40;;;;;;6146174;27;86087;-60
2023/07/17 02:00:51;;;;;;;18.45;14.88;;;27.70;76.40;;;;;;6163394;27;86235;-74
2023/07/17 02:03:52;;;;;;;21.50;13.55;;;27.70;76.50;;;;;;6142114;27;83097;-74
2023/07/17 02:06:53;;;;;;;17.60;14.05;;;27.70;76.40;;;;;;6174276;27;86018;-73
2023/07/17 02:09:53;;;;;;;17.02;14.43;;;27.70;76.40;;;;;;6152562;27;83854;-74
2023/07/17 02:12:54;;;;;;;16.00;13.73;;;27.60;76.40;;;;;;6150160;27;84036;-73
2023/07/17 02:15:54;;;;;;;16.00;14.30;;;27.60;76.50;;;;;;6159278;27;84329;-74
2023/07/17 02:18:55;;;;;;;14.90;13.38;;;27.60;76.70;;;;;;6159765;27;83251;-75
2023/07/17 02:21:56;;;;;;;14.90;13.30;;;27.60;76.70;;;;;;6168271;27;84519;-72
2023/07/17 02:24:57;;;;;;;15.00;13.35;;;27.60;76.70;;;;;;6168431;27;85577;-72
2023/07/17 02:27:58;;;;;;;15.98;13.63;;;27.60;76.70;;;;;;6169341;27;83089;-71
2023/07/17 02:30:58;;;;;;;14.25;12.80;;;27.60;76.60;;;;;;6169690;27;83400;-74
2023/07/17 02:33:59;;;;;;;17.38;13.40;;;27.60;76.40;;;;;;6168697;27;83868;-74
2023/07/17 02:37:00;;;;;;;14.63;12.50;;;27.60;76.30;;;;;;6154250;27;85803;-60
2023/07/17 02:40:01;;;;;;;14.65;12.95;;;27.60;76.10;;;;;;6149620;27;84303;-61
2023/07/17 02:43:02;;;;;;;16.02;12.82;;;27.60;76.10;;;;;;6169591;27;83832;-61
2023/07/17 02:46:03;;;;;;;15.23;13.13;;;27.70;76.10;;;;;;6169831;27;83106;-58
2023/07/17 02:49:03;;;;;;;17.00;12.55;;;27.60;76.00;;;;;;6170574;27;83703;-60
2023/07/17 02:52:03;;;;;;;13.65;12.35;;;27.60;75.90;;;;;;6170060;27;83648;-60
2023/07/17 02:55:04;;;;;;;14.90;12.70;;;27.60;75.90;;;;;;6169914;27;85085;-58
2023/07/17 02:58:05;;;;;;;15.93;12.23;;;27.60;75.80;;;;;;6184267;27;83926;-61
2023/07/17 03:01:06;;;;;;;15.60;13.25;;;27.70;75.70;;;;;;6180315;27;83150;-59
2023/07/17 03:04:06;;;;;;;15.63;13.38;;;27.60;75.50;;;;;;6167474;27;84015;-57
2023/07/17 03:07:07;;;;;;;13.95;12.40;;;27.60;75.80;;;;;;6168321;27;84148;-59
2023/07/17 03:10:07;;;;;;;14.27;12.82;;;27.60;75.80;;;;;;6163710;27;83351;-58
2023/07/17 03:13:08;;;;;;;15.63;12.57;;;27.60;75.80;;;;;;6161466;27;84889;-59
2023/07/17 03:16:09;;;;;;;14.60;12.65;;;27.60;76.00;;;;;;6166278;27;85791;-59
2023/07/17 03:19:09;;;;;;;15.80;13.38;;;27.60;76.30;;;;;;6169403;27;83147;-59
2023/07/17 03:22:10;;;;;;;22.88;14.20;;;27.60;76.30;;;;;;6179250;27;83817;-59
2023/07/17 03:25:10;;;;;;;15.00;13.48;;;27.60;76.30;;;;;;6160472;27;85888;-59
2023/07/17 03:28:11;;;;;;;14.95;13.43;;;27.60;76.50;;;;;;6158787;27;84456;-59
2023/07/17 03:31:11;;;;;;;16.90;13.68;;;27.50;76.50;;;;;;6168498;27;83878;-58
2023/07/17 03:34:12;;;;;;;16.58;13.55;;;27.50;76.60;;;;;;6166685;27;86030;-59
2023/07/17 03:37:13;;;;;;;16.65;13.95;;;27.60;76.80;;;;;;6161917;27;83365;-60
2023/07/17 03:40:13;;;;;;;18.48;14.43;;;27.60;76.70;;;;;;6160234;27;82834;-58
2023/07/17 03:43:15;;;;;;;15.10;13.20;;;27.60;76.60;;;;;;6164793;27;85844;-58
2023/07/17 03:46:15;;;;;;;16.25;14.55;;;27.60;76.70;;;;;;6157630;27;85759;-61
2023/07/17 03:49:16;;;;;;;16.70;13.73;;;27.70;76.60;;;;;;6161848;27;86325;-58
2023/07/17 03:52:17;;;;;;;16.52;13.45;;;27.70;76.50;;;;;;6155448;27;83155;-75
2023/07/17 03:55:17;;;;;;;14.23;12.77;;;27.70;76.30;;;;;;6151992;27;83256;-76
2023/07/17 03:58:18;;;;;;;16.33;13.70;;;27.70;76.30;;;;;;6162718;27;85934;-73
2023/07/17 04:01:18;;;;;;;16.10;14.02;;;27.70;76.10;;;;;;6155866;27;88613;-75
2023/07/17 04:04:22;;;;;;;17.45;14.82;;;27.70;76.40;;;;;;6158139;27;84345;-74
2023/07/17 04:07:23;;;;;;;20.52;14.13;;;27.70;76.40;;;;;;6166562;27;83060;-70
2023/07/17 04:10:24;;;;;;;16.02;13.20;;;27.60;76.70;;;;;;6147931;27;87314;-70
2023/07/17 04:13:24;;;;;;;14.07;12.20;;;27.60;76.60;;;;;;6149405;27;85262;-73
2023/07/17 04:16:26;;;;;;;18.70;13.20;;;27.70;76.60;;;;;;6153000;27;84088;-68
2023/07/17 04:19:27;;;;;;;15.27;13.77;;;27.70;76.60;;;;;;6150356;27;85683;-68
2023/07/17 04:22:28;;;;;;;18.50;14.02;;;27.60;77.00;;;;;;6175119;27;82968;-71
2023/07/17 04:25:28;;;;;;;16.73;14.45;;;27.60;77.10;;;;;;6163051;27;84129;-71
2023/07/17 04:28:29;;;;;;;15.77;13.70;;;27.70;76.90;;;;;;6158740;27;83841;-73
2023/07/17 04:31:31;;;;;;;14.05;12.65;;;27.70;76.90;;;;;;6156906;27;84449;-72
2023/07/17 04:34:31;;;;;;;16.38;13.73;;;27.70;76.60;;;;;;6161860;27;85883;-74
2023/07/17 04:37:32;;;;;;;14.27;12.75;;;27.70;76.40;;;;;;6155142;27;85024;-77
2023/07/17 04:40:33;;;;;;;17.55;13.07;;;27.70;76.50;;;;;;6147192;27;90153;-74
2023/07/17 04:43:34;;;;;;;15.52;13.02;;;27.70;76.70;;;;;;6166174;27;85922;-73
2023/07/17 04:46:35;;;;;;;13.70;12.23;;;27.70;76.60;;;;;;6161263;27;85135;-72
2023/07/17 04:49:36;;;;;;;16.88;12.32;;;27.70;76.70;;;;;;6164387;27;83323;-70
2023/07/17 04:52:36;;;;;;;13.85;12.40;;;27.70;76.50;;;;;;6169025;27;84072;-72
2023/07/17 04:55:37;;;;;;;13.95;12.45;;;27.80;76.40;;;;;;6159845;27;83714;-68
2023/07/17 04:58:38;;;;;;;18.20;13.07;;;27.80;76.30;;;;;;6157542;27;85627;-70
2023/07/17 05:01:39;;;;;;;14.68;13.00;;;27.80;76.40;;;;;;6156404;27;85752;-72
2023/07/17 05:04:40;;;;;;;15.98;13.48;;;27.80;76.80;;;;;;6191350;27;85932;-61
2023/07/17 05:07:41;;;;;;;18.52;13.43;;;27.70;77.00;;;;;;6165056;27;84315;-57
2023/07/17 05:10:42;;;;;;;18.70;13.95;;;27.70;77.10;;;;;;6156634;27;84596;-62
2023/07/17 05:13:43;;;;;;;19.10;12.57;;;27.70;77.50;;;;;;6156548;27;85919;-57
2023/07/17 05:16:44;;;;;;;17.13;12.85;;;27.70;77.10;;;;;;6156198;27;86312;-61
2023/07/17 05:19:46;;;;;;;20.95;12.60;;;27.70;77.20;;;;;;6162117;27;84936;-61
2023/07/17 05:22:47;;;;;;;14.60;11.82;;;27.70;77.50;;;;;;6152515;27;86164;-60
2023/07/17 05:25:47;;;;;;;14.60;13.00;;;27.80;77.50;;;;;;6158394;27;83278;-60
2023/07/17 05:28:48;;;;;;;17.13;12.38;;;27.80;77.60;;;;;;6159584;27;85948;-60
2023/07/17 05:31:49;;;;;;;12.73;11.32;;;27.80;77.30;;;;;;6154332;27;87692;-60
2023/07/17 05:34:50;;;;;;;13.65;12.25;;;27.80;77.30;;;;;;6167589;27;83267;-59
2023/07/17 05:37:52;;;;;;;18.35;12.98;;;27.80;77.90;;;;;;6158988;27;86113;-58
2023/07/17 05:40:52;;;;;;;16.70;12.52;;;27.90;78.40;;;;;;6158095;27;84863;-59
2023/07/17 05:43:53;;;;;;;19.35;13.93;;;28.00;78.70;;;;;;6157620;27;88758;-71
2023/07/17 05:46:55;;;;;;;19.85;14.32;;;28.00;79.40;;;;;;6171312;27;85846;-70
2023/07/17 05:49:55;;;;;;;21.83;14.32;;;28.00;78.70;;;;;;6160115;27;85852;-69
2023/07/17 05:52:56;;;;;;;22.00;13.32;;;28.00;78.40;;;;;;6039625;27;85883;-76
2023/07/17 05:55:57;;;;;;;14.48;12.43;;;28.00;77.80;;;;;;6076334;27;84875;-69
2023/07/17 05:58:57;;;;;;;22.17;14.02;;;28.00;77.70;;;;;;6050234;27;85899;-59
2023/07/17 06:01:58;;;;;;;20.00;14.00;;;28.00;77.30;;;;;;6037685;27;85175;-61
2023/07/17 06:04:58;;;;;;;20.42;14.98;;;28.00;76.80;;;;;;6053620;27;86510;-59
2023/07/17 06:07:59;;;;;;;20.38;14.45;;;28.00;76.80;;;;;;6046529;27;85192;-61
2023/07/17 06:10:59;;;;;;;18.92;14.35;;;28.00;76.90;;;;;;6048607;27;84913;-63
2023/07/17 06:14:00;;;;;;;16.73;13.10;;;28.00;76.80;;;;;;6048942;27;89039;-59
2023/07/17 06:17:00;;;;;;;19.52;12.75;;;27.90;77.30;;;;;;6044623;27;84458;-62
2023/07/17 06:20:04;;;;;;;19.55;10.57;;;27.80;75.20;;;;;;6042932;27;85029;-66
2023/07/17 06:23:05;;;;;;;13.77;7.57;;;27.80;74.50;;;;;;6047794;27;85455;-69
2023/07/17 06:26:06;;;;;;;13.50;7.90;;;27.70;71.70;;;;;;6043880;27;84738;-69
2023/07/17 06:29:07;;;;;;;20.38;7.30;;;27.70;71.20;;;;;;6050191;27;81969;-68
2023/07/17 06:32:08;;;;;;;27.05;6.95;;;27.70;68.90;;;;;;6055542;27;82017;-72
2023/07/17 06:35:09;;;;;;;19.60;7.95;;;27.70;67.10;;;;;;6046769;27;81513;-68
2023/07/17 06:38:09;;;;;;;28.15;7.72;;;27.60;66.90;;;;;;6051487;27;83586;-62
2023/07/17 06:41:10;;;;;;;22.73;8.43;;;27.60;67.00;;;;;;6032488;27;81546;-61
2023/07/17 06:44:10;;;;;;;16.50;6.50;;;27.60;67.10;;;;;;6029649;27;82274;-59
2023/07/17 06:47:11;;;;;;;14.95;4.68;;;27.60;67.50;;;;;;6047464;27;81858;-59
2023/07/17 06:50:11;;;;;;;13.25;4.82;;;27.60;68.40;;;;;;6041689;27;81545;-60
2023/07/17 06:53:12;;;;;;;11.85;4.50;;;27.60;68.80;;;;;;6035679;27;81512;-59
2023/07/17 06:56:13;;;;;;;13.07;3.53;;;27.60;68.80;;;;;;6029453;27;81821;-63
2023/07/17 06:59:13;;;;;;;7.95;2.67;;;27.60;68.90;;;;;;6045111;27;81453;-65
2023/07/17 07:02:14;;;;;;;6.53;2.80;;;27.60;68.60;;;;;;6030665;27;83205;-71
2023/07/17 07:05:14;;;;;;;3.78;2.33;;;27.60;68.70;;;;;;6040471;27;82311;-68
2023/07/17 07:08:15;;;;;;;6.65;2.42;;;27.60;68.10;;;;;;6056383;27;82223;-71
2023/07/17 07:11:15;;;;;;;4.22;2.83;;;27.60;67.90;;;;;;6043770;27;81946;-66
2023/07/17 07:14:16;;;;;;;6.93;2.35;;;27.60;68.30;;;;;;6052909;27;82149;-59
2023/07/17 07:17:16;;;;;;;3.40;2.22;;;27.60;68.00;;;;;;6053561;27;82167;-60
2023/07/17 07:20:17;;;;;;;11.55;2.25;;;27.60;67.80;;;;;;6041057;27;82029;-60
2023/07/17 07:23:17;;;;;;;5.25;2.20;;;27.70;67.60;;;;;;6041636;27;81870;-59
2023/07/17 07:26:18;;;;;;;7.47;2.50;;;27.70;67.40;;;;;;6037224;27;83388;-61
2023/07/17 07:29:18;;;;;;;3.10;2.15;;;27.70;67.10;;;;;;6043885;27;81824;-60
2023/07/17 07:32:19;;;;;;;5.20;1.70;;;27.80;67.00;;;;;;6049857;27;81358;-59
2023/07/17 07:35:19;;;;;;;5.97;2.10;;;27.70;66.70;;;;;;6042152;27;81739;-59
2023/07/17 07:38:20;;;;;;;5.07;1.50;;;27.70;66.10;;;;;;6034828;27;81801;-58
2023/07/17 07:41:21;;;;;;;8.13;2.10;;;27.70;65.30;;;;;;6029077;27;82164;-59
2023/07/17 07:44:21;;;;;;;5.82;1.88;;;27.70;65.40;;;;;;6031039;27;83122;-59
2023/07/17 07:47:22;;;;;;;3.28;1.50;;;27.70;65.20;;;;;;6035245;27;82200;-60
2023/07/17 07:50:22;;;;;;;6.22;1.92;;;27.70;64.70;;;;;;6032086;27;81989;-66
2023/07/17 07:53:23;;;;;;;2.83;1.65;;;27.60;64.90;;;;;;6026630;27;82049;-70
2023/07/17 07:56:23;;;;;;;4.45;1.50;;;27.60;64.80;;;;;;6032883;27;81834;-67
2023/07/17 07:59:24;;;;;;;5.35;1.90;;;27.60;65.00;;;;;;6031292;27;82172;-69
2023/07/17 08:02:25;;;;;;;8.60;2.15;;;27.60;65.30;;;;;;6029283;27;81607;-69
2023/07/17 08:05:25;;;;;;;3.35;1.73;;;27.60;65.80;;;;;;6023561;27;81645;-67
2023/07/17 08:08:26;;;;;;;6.15;2.10;;;27.60;65.50;;;;;;6025682;27;80341;-74
2023/07/17 08:11:26;;;;;;;6.18;1.73;;;27.60;65.70;;;;;;6034293;27;82158;-71
2023/07/17 08:14:27;;;;;;;5.85;1.90;;;27.60;66.00;;;;;;6035761;27;82144;-73
2023/07/17 08:17:27;;;;;;;5.45;1.90;;;27.70;66.10;;;;;;6043431;27;82161;-73
2023/07/17 08:20:29;;;;;;;2.72;1.67;;;27.60;65.60;;;;;;6063397;27;81971;-77
2023/07/17 08:23:30;;;;;;;3.53;1.90;;;27.50;66.00;;;;;;6052369;27;81842;-65
2023/07/17 08:26:31;;;;;;;3.63;1.60;;;27.50;66.50;;;;;;6031114;27;82264;-58
2023/07/17 08:29:31;;;;;;;6.10;1.98;;;27.60;66.00;;;;;;6043622;27;82226;-58
2023/07/17 08:32:32;;;;;;;3.47;1.52;;;27.60;66.40;;;;;;6037804;27;81916;-58
2023/07/17 08:35:32;;;;;;;3.08;1.58;;;27.60;66.30;;;;;;6042848;27;81644;-58
2023/07/17 08:38:33;;;;;;;5.97;1.80;;;27.60;65.50;;;;;;6023624;27;81396;-57
2023/07/17 08:41:34;;;;;;;4.90;1.73;;;27.40;65.90;;;;;;6032403;27;85872;-58
2023/07/17 08:44:34;;;;;;;3.53;1.40;;;27.20;66.60;;;;;;6036825;27;80487;-58
2023/07/17 08:47:35;;;;;;;3.33;1.73;;;27.20;66.60;;;;;;6021471;27;80775;-60
2023/07/17 08:50:36;;;;;;;7.32;1.70;;;27.20;66.70;;;;;;6039715;27;82913;-58
2023/07/17 08:53:37;;;;;;;5.65;1.77;;;27.10;67.20;;;;;;6047344;27;80918;-60
2023/07/17 08:56:38;;;;;;;4.85;1.35;;;27.30;67.60;;;;;;6038039;27;81695;-59
2023/07/17 08:59:38;;;;;;;4.85;2.20;;;27.30;67.30;;;;;;6041243;27;81819;-60
2023/07/17 09:02:39;;;;;;;4.50;1.65;;;27.40;67.60;;;;;;6037992;27;85776;-60
2023/07/17 09:05:39;;;;;;;4.38;1.30;;;27.30;67.20;;;;;;6049725;27;82197;-69
2023/07/17 09:08:40;;;;;;;2.08;1.40;;;27.00;68.00;;;;;;6053300;27;81973;-69
2023/07/17 09:11:40;;;;;;;6.30;2.15;;;26.80;68.90;;;;;;6034453;27;82313;-64
2023/07/17 09:14:41;;;;;;;4.32;2.28;;;26.70;68.20;;;;;;6057373;27;82653;-65
2023/07/17 09:17:42;;;;;;;3.55;1.95;;;26.90;68.60;;;;;;6071477;27;81968;-65
2023/07/17 09:20:42;;;;;;;3.22;1.52;;;27.10;68.60;;;;;;6060853;27;82326;-63
2023/07/17 09:23:43;;;;;;;4.00;1.98;;;27.20;68.10;;;;;;6066783;27;83473;-58
2023/07/17 09:26:43;;;;;;;3.53;1.83;;;27.20;68.00;;;;;;6046985;27;81120;-59
2023/07/17 09:29:44;;;;;;;3.30;2.22;;;27.20;68.20;;;;;;6054664;27;81097;-60
2023/07/17 09:32:45;;;;;;;5.38;2.00;;;27.20;67.70;;;;;;6055438;27;82731;-59
2023/07/17 09:35:45;;;;;;;3.17;1.60;;;27.10;68.20;;;;;;6056192;27;83434;-58
2023/07/17 09:38:46;;;;;;;3.97;1.40;;;27.30;68.50;;;;;;6039236;27;81907;-58
2023/07/17 09:41:47;;;;;;;4.15;1.90;;;27.50;68.10;;;;;;6048950;27;82008;-59
2023/07/17 09:44:48;;;;;;;4.40;1.83;;;27.60;67.90;;;;;;6030964;27;82904;-58
2023/07/17 09:47:49;;;;;;;3.70;1.60;;;27.60;67.10;;;;;;6053067;27;82177;-59
2023/07/17 09:50:50;;;;;;;2.13;1.52;;;27.70;66.90;;;;;;6051589;27;81924;-59
2023/07/17 09:53:50;;;;;;;3.83;1.67;;;27.70;66.20;;;;;;6041569;27;81074;-59
2023/07/17 09:56:51;;;;;;;3.03;1.80;;;27.70;66.80;;;;;;6043022;27;80828;-59
2023/07/17 09:59:51;;;;;;;5.05;1.90;;;27.80;66.60;;;;;;6040893;27;80542;-59
2023/07/17 10:02:52;;;;;;;6.13;2.00;;;27.80;66.30;;;;;;6031941;27;84835;-58
2023/07/17 10:05:53;;;;;;;2.97;2.00;;;27.90;66.30;;;;;;6043240;27;81110;-60
2023/07/17 10:08:54;;;;;;;3.17;1.60;;;27.90;66.00;;;;;;6042114;27;81823;-57
2023/07/17 10:11:54;;;;;;;3.33;1.90;;;27.90;66.30;;;;;;6036100;27;82182;-57
2023/07/17 10:14:55;;;;;;;3.30;1.70;;;27.90;66.30;;;;;;6040716;27;82162;-59
2023/07/17 10:17:58;;;;;;;3.35;1.90;;;28.00;65.90;;;;;;6041689;27;81844;-71
2023/07/17 10:21:00;;;;;;;5.72;2.10;;;28.00;66.00;;;;;;6051948;27;83136;-70
2023/07/17 10:24:01;;;;;;;2.75;1.77;;;28.10;66.20;;;;;;6046722;27;82152;-69
2023/07/17 10:27:01;;;;;;;2.63;1.70;;;28.10;66.00;;;;;;6048341;27;82245;-71
2023/07/17 10:30:02;;;;;;;7.88;1.90;;;28.10;66.40;;;;;;6053792;27;81447;-68
2023/07/17 10:33:04;;;;;;;6.13;1.90;;;28.20;67.00;;;;;;6062411;27;82276;-75
2023/07/17 10:36:04;;;;;;;6.40;2.08;;;28.20;66.50;;;;;;6045935;27;80990;-57
2023/07/17 10:39:05;;;;;;;3.40;2.38;;;28.20;67.20;;;;;;6032564;27;82487;-60
2023/07/17 10:42:06;;;;;;;5.18;2.10;;;28.20;67.40;;;;;;6052095;27;82419;-57
2023/07/17 10:45:06;;;;;;;5.18;2.55;;;28.00;67.50;;;;;;6042811;27;83328;-58
2023/07/17 10:48:07;;;;;;;2.78;2.20;;;27.90;68.80;;;;;;6057744;27;82364;-57
2023/07/17 10:51:08;;;;;;;3.47;2.78;;;27.80;69.70;;;;;;6037752;27;82230;-60
2023/07/17 10:54:08;;;;;;;4.93;2.13;;;27.90;70.90;;;;;;6048300;27;84056;-59
2023/07/17 10:57:09;;;;;;;3.83;2.20;;;28.00;71.10;;;;;;6045652;27;84203;-60
2023/07/17 11:00:10;;;;;;;5.97;2.40;;;28.10;71.40;;;;;;6044838;27;81948;-64
2023/07/17 11:03:10;;;;;;;4.20;2.05;;;28.10;70.80;;;;;;6048514;27;81796;-60
2023/07/17 11:06:11;;;;;;;2.35;2.00;;;28.20;71.10;;;;;;6043458;27;82026;-62
2023/07/17 11:09:11;;;;;;;5.28;2.08;;;28.20;69.60;;;;;;6055237;27;85662;-59
2023/07/17 11:12:12;;;;;;;5.63;2.08;;;28.20;69.40;;;;;;6035379;27;82024;-68
2023/07/17 11:15:13;;;;;;;3.22;2.03;;;28.30;69.10;;;;;;6061463;27;81473;-67
2023/07/17 11:18:13;;;;;;;3.28;2.17;;;28.30;68.70;;;;;;6053655;27;81840;-66
2023/07/17 11:21:14;;;;;;;9.20;2.05;;;28.20;68.20;;;;;;6041030;27;81632;-66
2023/07/17 11:24:14;;;;;;;8.52;2.55;;;28.30;68.50;;;;;;6038702;27;82181;-66
2023/07/17 11:27:15;;;;;;;5.85;2.65;;;28.20;68.70;;;;;;6036971;27;81945;-64
2023/07/17 11:30:16;;;;;;;4.53;2.42;;;28.20;67.40;;;;;;6034854;27;82122;-64
2023/07/17 11:33:16;;;;;;;5.25;2.55;;;28.20;67.60;;;;;;6040443;27;81899;-63
2023/07/17 11:36:17;;;;;;;4.43;2.55;;;28.10;68.10;;;;;;6050084;27;81921;-64
2023/07/17 11:39:17;;;;;;;5.38;2.25;;;28.10;68.20;;;;;;6037718;27;82919;-64
2023/07/17 11:42:18;;;;;;;8.48;2.72;;;28.00;69.00;;;;;;6050744;27;82991;-67
2023/07/17 11:45:18;;;;;;;5.00;2.35;;;28.10;68.30;;;;;;6049164;27;85253;-64
2023/07/17 11:48:19;;;;;;;5.15;3.10;;;28.00;68.50;;;;;;6059837;27;82267;-65
2023/07/17 11:51:19;;;;;;;5.80;2.97;;;28.00;69.10;;;;;;6053178;27;81761;-63
2023/07/17 11:54:20;;;;;;;7.57;3.10;;;28.00;69.20;;;;;;6051906;27;81928;-65
2023/07/17 11:57:20;;;;;;;6.78;3.00;;;28.00;69.20;;;;;;6042955;27;82019;-65
2023/07/17 12:00:21;;;;;;;6.75;3.55;;;27.90;69.80;;;;;;6030216;27;80998;-65
2023/07/17 12:03:22;;;;;;;11.05;4.22;;;27.90;69.60;;;;;;6040848;27;82079;-62
2023/07/17 12:06:22;;;;;;;12.75;5.18;;;27.90;69.80;;;;;;6043893;27;81759;-63
2023/07/17 12:09:23;;;;;;;9.85;3.78;;;27.80;70.50;;;;;;6044119;27;82241;-57
2023/07/17 12:12:23;;;;;;;8.93;3.80;;;27.70;70.10;;;;;;6046558;27;81964;-59
2023/07/17 12:15:24;;;;;;;8.73;3.50;;;27.70;69.90;;;;;;6051881;27;82104;-57
2023/07/17 12:18:25;;;;;;;8.32;3.53;;;27.60;70.00;;;;;;6050717;27;82287;-58
2023/07/17 12:21:25;;;;;;;7.45;3.35;;;27.60;70.90;;;;;;6051122;27;82007;-58
2023/07/17 12:24:26;;;;;;;7.63;2.65;;;27.60;71.60;;;;;;6035401;27;82296;-56
2023/07/17 12:27:26;;;;;;;11.25;3.42;;;27.60;72.40;;;;;;6045217;27;80852;-57
2023/07/17 12:30:27;;;;;;;8.45;2.67;;;27.60;73.50;;;;;;6049061;27;84476;-58
2023/07/17 12:33:27;;;;;;;7.38;3.25;;;27.50;74.50;;;;;;6047387;27;83480;-55
2023/07/17 12:36:28;;;;;;;14.15;3.33;;;27.50;74.50;;;;;;6046441;27;82092;-57
2023/07/17 12:39:28;;;;;;;10.40;3.03;;;27.50;74.80;;;;;;6035828;27;81939;-58
2023/07/17 12:42:29;;;;;;;9.63;3.95;;;27.50;75.00;;;;;;6049236;27;81897;-56
2023/07/17 12:45:29;;;;;;;7.53;3.22;;;27.50;75.80;;;;;;6048489;27;82064;-57
2023/07/17 12:48:30;;;;;;;7.35;3.38;;;27.50;75.60;;;;;;6047742;27;82682;-58
2023/07/17 12:51:30;;;;;;;9.32;4.03;;;27.40;75.50;;;;;;6053041;27;81862;-57
2023/07/17 12:54:31;;;;;;;6.55;3.78;;;27.30;75.30;;;;;;6040079;27;82343;-55
2023/07/17 12:57:31;;;;;;;8.32;3.78;;;27.30;75.20;;;;;;6048844;27;81968;-57
2023/07/17 13:00:32;;;;;;;6.07;4.03;;;27.20;75.00;;;;;;6051837;27;82561;-57
2023/07/17 13:03:32;;;;;;;8.63;4.50;;;27.20;74.70;;;;;;6040848;27;82086;-57
2023/07/17 13:06:33;;;;;;;8.45;5.13;;;27.10;74.50;;;;;;6047511;27;82100;-58
2023/07/17 13:09:34;;;;;;;10.70;5.93;;;27.10;74.40;;;;;;6049078;27;82818;-58
2023/07/17 13:12:35;;;;;;;11.65;5.18;;;27.10;74.90;;;;;;6048815;27;81136;-58
2023/07/17 13:15:35;;;;;;;11.98;5.00;;;26.80;76.50;;;;;;6051187;27;81665;-59
2023/07/17 13:18:36;;;;;;;9.77;4.45;;;26.50;80.30;;;;;;6022998;27;82122;-58
2023/07/17 13:21:36;;;;;;;5.50;4.47;;;26.10;83.00;;;;;;6025118;27;82153;-56
2023/07/17 13:24:37;;;;;;;12.73;4.70;;;25.50;85.70;;;;;;6039236;27;82152;-57
2023/07/17 13:27:37;;;;;;;11.35;5.15;;;25.00;89.70;;;;;;6043667;27;83455;-58
2023/07/17 13:30:39;;;;;;;9.45;5.40;;;24.60;90.90;;;;;;6042306;27;82276;-58
2023/07/17 13:33:40;;;;;;;5.97;4.28;;;24.40;92.40;;;;;;6045273;27;83294;-58
2023/07/17 13:36:40;;;;;;;5.85;3.92;;;24.20;93.00;;;;;;6038467;27;84135;-59
2023/07/17 13:39:41;;;;;;;9.02;4.35;;;24.10;93.90;;;;;;6031905;27;82165;-57
2023/07/17 13:42:41;;;;;;;8.45;4.55;;;24.10;94.10;;;;;;6046162;27;81271;-58
2023/07/17 13:45:42;;;;;;;9.35;4.78;;;24.10;94.50;;;;;;6047874;27;82080;-55
2023/07/17 13:48:42;;;;;;;4.82;4.15;;;24.30;94.20;;;;;;6026980;27;82250;-59
2023/07/17 13:51:45;;;;;;;9.25;5.63;;;24.20;94.10;;;;;;6051133;27;83159;-59
2023/07/17 13:54:45;;;;;;;9.82;4.43;;;24.10;94.60;;;;;;6052911;27;81726;-60
2023/07/17 13:57:46;;;;;;;6.70;4.32;;;24.20;93.90;;;;;;6057552;27;82493;-58
2023/07/17 14:00:46;;;;;;;9.48;4.40;;;24.20;93.90;;;;;;6051996;27;82145;-59
2023/07/17 14:03:47;;;;;;;7.55;4.53;;;24.20;93.60;;;;;;6048014;27;81173;-60
2023/07/17 14:06:47;;;;;;;5.65;3.58;;;24.20;94.00;;;;;;6047362;27;80433;-58
2023/07/17 14:09:48;;;;;;;6.40;4.25;;;24.00;94.00;;;;;;6036682;27;82541;-59
2023/07/17 14:12:49;;;;;;;5.45;3.72;;;24.10;94.20;;;;;;6038226;27;81109;-56
2023/07/17 14:15:49;;;;;;;4.85;3.90;;;24.10;94.10;;;;;;6057827;27;82281;-55
2023/07/17 14:18:50;;;;;;;7.22;3.72;;;24.30;93.70;;;;;;6052168;27;82108;-58
2023/07/17 14:21:50;;;;;;;7.88;4.20;;;24.60;93.00;;;;;;6049156;27;82188;-57
2023/07/17 14:24:51;;;;;;;5.32;3.58;;;24.80;92.70;;;;;;6048886;27;81652;-58
2023/07/17 14:27:51;;;;;;;8.98;4.63;;;25.10;92.10;;;;;;6051330;27;82069;-60
2023/07/17 14:30:53;;;;;;;8.57;4.80;;;25.40;91.60;;;;;;6050984;27;82397;-58
2023/07/17 14:33:53;;;;;;;5.38;4.35;;;25.60;90.50;;;;;;6049114;27;80734;-66
2023/07/17 14:36:54;;;;;;;8.57;4.72;;;25.80;90.40;;;;;;6029620;27;81046;-65
2023/07/17 14:39:54;;;;;;;7.82;4.25;;;26.00;90.60;;;;;;6050717;27;80622;-66
2023/07/17 14:42:55;;;;;;;8.85;4.32;;;26.10;90.30;;;;;;6044471;27;81717;-68
2023/07/17 14:45:55;;;;;;;9.77;4.65;;;26.20;90.50;;;;;;6048091;27;83272;-68
2023/07/17 14:48:56;;;;;;;9.50;4.47;;;26.30;90.20;;;;;;6049305;27;81045;-68
2023/07/17 14:51:56;;;;;;;7.70;4.38;;;26.30;89.50;;;;;;6054030;27;80344;-59
2023/07/17 14:54:57;;;;;;;8.57;4.55;;;26.20;90.00;;;;;;6060008;27;81499;-69
2023/07/17 14:57:57;;;;;;;6.68;3.45;;;26.20;90.40;;;;;;6050272;27;80612;-66
2023/07/17 15:00:58;;;;;;;9.55;4.22;;;26.10;91.00;;;;;;6046760;27;82279;-63
2023/07/17 15:03:58;;;;;;;6.65;3.95;;;26.20;90.70;;;;;;6058277;27;82177;-63
2023/07/17 15:06:59;;;;;;;5.53;3.72;;;26.30;90.20;;;;;;6050795;27;86777;-64
2023/07/17 15:10:00;;;;;;;6.95;3.88;;;26.40;88.30;;;;;;6039245;27;83583;-65
2023/07/17 15:13:00;;;;;;;4.30;3.63;;;26.50;88.50;;;;;;6047798;27;82013;-63
2023/07/17 15:16:01;;;;;;;4.50;3.60;;;26.50;87.80;;;;;;6062244;27;81605;-61
2023/07/17 15:19:01;;;;;;;4.13;3.10;;;26.50;87.00;;;;;;6044363;27;82172;-59
2023/07/17 15:22:02;;;;;;;4.70;3.45;;;26.10;86.50;;;;;;6044055;27;80913;-60
2023/07/17 15:25:03;;;;;;;3.42;2.88;;;26.10;87.50;;;;;;6035781;27;82014;-62
2023/07/17 15:28:03;;;;;;;4.15;3.35;;;26.00;87.70;;;;;;6044120;27;82069;-60